createdAt,value
2023-01-09T00:01:34.034Z,89.35
2023-01-09T00:04:02.387Z,89.34
2023-01-09T00:06:30.481Z,89.26
2023-01-09T00:08:58.876Z,89.08
2023-01-09T00:11:26.980Z,89.14
2023-01-09T00:13:55.209Z,89.08
2023-01-09T00:16:23.285Z,89.09
2023-01-09T00:18:53.498Z,89.13
2023-01-09T00:21:21.796Z,89.43
2023-01-09T00:23:49.973Z,89.21
2023-01-09T00:26:19.870Z,89.10
2023-01-09T00:28:49.763Z,89.35
2023-01-09T00:31:19.355Z,88.98
2023-01-09T00:34:00.232Z,89.14
2023-01-09T00:36:29.045Z,89.02
2023-01-09T00:38:57.380Z,88.77
2023-01-09T00:41:28.802Z,88.91
2023-01-09T00:44:02.334Z,88.90
2023-01-09T00:46:37.720Z,88.83
2023-01-09T00:49:09.279Z,88.82
2023-01-09T00:51:39.412Z,89.10
2023-01-09T00:54:07.784Z,89.24
2023-01-09T00:56:37.271Z,89.18
2023-01-09T00:59:05.885Z,89.29
2023-01-09T01:01:34.092Z,89.17
2023-01-09T01:04:22.548Z,89.53
2023-01-09T01:07:09.632Z,89.77
2023-01-09T01:09:37.697Z,89.97
2023-01-09T01:12:07.398Z,89.86
2023-01-09T01:14:36.384Z,90.04
2023-01-09T01:17:05.107Z,90.29
2023-01-09T01:19:34.114Z,90.44
2023-01-09T01:22:03.745Z,90.43
2023-01-09T01:24:31.906Z,90.54
2023-01-09T01:26:59.960Z,90.54
2023-01-09T01:29:28.102Z,90.41
2023-01-09T01:31:56.237Z,90.56
2023-01-09T01:34:24.445Z,90.47
2023-01-09T01:36:52.587Z,90.57
2023-01-09T01:39:22.306Z,90.90
2023-01-09T01:41:50.365Z,90.79
2023-01-09T01:44:58.027Z,90.84
2023-01-09T01:47:30.916Z,90.89
2023-01-09T01:49:59.538Z,90.73
2023-01-09T01:52:28.762Z,90.85
2023-01-09T01:54:58.272Z,90.69
2023-01-09T01:57:26.584Z,90.89
2023-01-09T02:00:00.122Z,90.80
2023-01-09T02:02:32.197Z,90.72
2023-01-09T02:05:02.774Z,90.66
2023-01-09T02:07:31.256Z,90.53
2023-01-09T02:10:01.442Z,90.52
2023-01-09T02:12:29.905Z,90.80
2023-01-09T02:15:01.252Z,90.65
2023-01-09T02:17:57.939Z,90.74
2023-01-09T02:20:37.277Z,90.68
2023-01-09T02:23:34.757Z,90.54
2023-01-09T02:26:24.658Z,90.47
2023-01-09T02:29:26.304Z,90.49
2023-01-09T02:32:04.292Z,90.60
2023-01-09T02:34:40.296Z,90.55
2023-01-09T02:37:16.803Z,90.54
2023-01-09T02:39:52.300Z,90.56
2023-01-09T02:42:23.787Z,90.42
2023-01-09T02:44:52.674Z,90.41
2023-01-09T02:47:43.862Z,90.21
2023-01-09T02:50:16.442Z,90.19
2023-01-09T02:53:24.544Z,90.27
2023-01-09T02:56:03.814Z,90.33
2023-01-09T02:58:44.599Z,90.31
2023-01-09T03:01:33.429Z,90.48
2023-01-09T03:04:10.477Z,90.31
2023-01-09T03:06:48.391Z,91.12
2023-01-09T03:09:20.357Z,91.58
2023-01-09T03:11:53.623Z,91.48
2023-01-09T03:14:25.347Z,91.24
2023-01-09T03:17:01.461Z,91.53
2023-01-09T03:19:33.277Z,91.57
2023-01-09T03:22:01.678Z,91.67
2023-01-09T03:24:29.845Z,91.41
2023-01-09T03:26:57.928Z,91.37
2023-01-09T03:29:27.017Z,91.54
2023-01-09T03:31:55.884Z,91.47
2023-01-09T03:34:24.056Z,91.44
2023-01-09T03:36:53.570Z,91.60
2023-01-09T03:39:21.627Z,91.94
2023-01-09T03:41:49.757Z,91.68
2023-01-09T03:44:17.872Z,91.60
2023-01-09T03:46:45.917Z,91.65
2023-01-09T03:49:14.564Z,91.29
2023-01-09T03:51:42.747Z,91.46
2023-01-09T03:54:12.216Z,91.42
2023-01-09T03:56:40.267Z,90.99
2023-01-09T03:59:08.419Z,91.96
2023-01-09T04:01:36.528Z,91.63
2023-01-09T04:04:04.806Z,91.65
2023-01-09T04:06:33.014Z,91.72
2023-01-09T04:09:01.139Z,92.45
2023-01-09T04:11:30.621Z,92.88
2023-01-09T04:13:58.699Z,92.52
2023-01-09T04:16:26.904Z,92.45
2023-01-09T04:18:54.952Z,92.18
2023-01-09T04:21:23.038Z,91.84
2023-01-09T04:23:51.124Z,91.64
2023-01-09T04:26:19.306Z,91.23
2023-01-09T04:28:49.028Z,90.85
2023-01-09T04:31:17.384Z,90.56
2023-01-09T04:33:45.482Z,90.25
2023-01-09T04:36:13.899Z,90.63
2023-01-09T04:38:41.970Z,90.59
2023-01-09T04:41:10.006Z,90.93
2023-01-09T04:43:38.098Z,91.03
2023-01-09T04:46:07.634Z,91.20
2023-01-09T04:48:35.717Z,91.00
2023-01-09T04:51:03.754Z,91.09
2023-01-09T04:53:31.931Z,90.71
2023-01-09T04:56:00.090Z,90.31
2023-01-09T04:58:28.186Z,90.28
2023-01-09T05:00:56.414Z,90.07
2023-01-09T05:03:25.851Z,89.87
2023-01-09T05:05:53.995Z,89.90
2023-01-09T05:08:22.097Z,89.80
2023-01-09T05:10:50.197Z,90.80
2023-01-09T05:13:18.223Z,90.92
2023-01-09T05:15:46.392Z,90.58
2023-01-09T05:18:14.462Z,90.29
2023-01-09T05:20:43.940Z,90.02
2023-01-09T05:23:12.020Z,90.40
2023-01-09T05:25:40.126Z,90.25
2023-01-09T05:28:08.287Z,90.15
2023-01-09T05:30:36.437Z,90.34
2023-01-09T05:33:04.670Z,89.96
2023-01-09T05:35:32.779Z,89.85
2023-01-09T05:38:02.414Z,89.70
2023-01-09T05:40:39.629Z,89.93
2023-01-09T05:43:08.767Z,89.74
2023-01-09T05:45:37.228Z,89.63
2023-01-09T05:48:05.478Z,89.91
2023-01-09T05:50:33.555Z,89.79
2023-01-09T05:53:03.292Z,89.79
2023-01-09T05:55:31.755Z,89.75
2023-01-09T05:57:59.827Z,89.84
2023-01-09T06:00:28.082Z,89.47
2023-01-09T06:02:56.240Z,89.42
2023-01-09T06:05:24.556Z,89.26
2023-01-09T06:07:52.607Z,89.21
2023-01-09T06:10:22.115Z,89.03
2023-01-09T06:12:51.781Z,89.11
2023-01-09T06:15:20.684Z,88.96
2023-01-09T06:17:48.980Z,88.80
2023-01-09T06:20:17.259Z,88.71
2023-01-09T06:22:45.918Z,88.79
2023-01-09T06:25:14.648Z,88.79
2023-01-09T06:27:44.105Z,88.57
2023-01-09T06:30:13.353Z,88.50
2023-01-09T06:32:41.546Z,88.64
2023-01-09T06:35:10.642Z,88.25
2023-01-09T06:37:39.034Z,88.74
2023-01-09T06:40:08.685Z,88.63
2023-01-09T06:42:36.812Z,88.08
2023-01-09T06:45:07.348Z,88.72
2023-01-09T06:47:35.452Z,88.63
2023-01-09T06:50:03.548Z,88.52
2023-01-09T06:52:31.712Z,88.77
2023-01-09T06:54:59.748Z,88.89
2023-01-09T06:57:27.857Z,88.87
2023-01-09T06:59:55.982Z,88.95
2023-01-09T07:02:25.682Z,89.16
2023-01-09T07:04:53.790Z,89.38
2023-01-09T07:07:27.955Z,89.48
2023-01-09T07:09:56.088Z,89.51
2023-01-09T07:12:24.689Z,89.29
2023-01-09T07:14:52.803Z,89.60
2023-01-09T07:17:20.914Z,89.40
2023-01-09T07:19:50.381Z,89.22
2023-01-09T07:22:18.703Z,89.57
2023-01-09T07:24:47.610Z,89.49
2023-01-09T07:27:15.670Z,89.64
2023-01-09T07:29:43.801Z,90.38
2023-01-09T07:32:11.927Z,91.08
2023-01-09T07:34:40.043Z,91.45
2023-01-09T07:37:09.736Z,90.95
2023-01-09T07:39:37.815Z,90.77
2023-01-09T07:42:05.923Z,90.98
2023-01-09T07:44:34.256Z,90.88
2023-01-09T07:47:02.454Z,90.35
2023-01-09T07:49:30.755Z,90.25
2023-01-09T07:51:59.017Z,89.60
2023-01-09T07:54:28.477Z,89.50
2023-01-09T07:56:57.011Z,88.88
2023-01-09T07:59:25.051Z,88.93
2023-01-09T08:01:53.198Z,88.46
2023-01-09T08:04:21.341Z,88.24
2023-01-09T08:06:49.656Z,88.19
2023-01-09T08:09:18.443Z,88.19
2023-01-09T08:11:47.966Z,88.55
2023-01-09T08:14:16.181Z,88.00
2023-01-09T08:16:44.347Z,87.31
2023-01-09T08:19:12.469Z,86.88
2023-01-09T08:21:40.641Z,86.62
2023-01-09T08:24:08.874Z,86.11
2023-01-09T08:26:36.942Z,85.74
2023-01-09T08:29:06.623Z,85.78
2023-01-09T08:31:34.764Z,85.58
2023-01-09T08:34:02.995Z,85.29
2023-01-09T08:36:31.090Z,84.79
2023-01-09T08:38:59.276Z,84.68
2023-01-09T08:41:44.546Z,84.80
2023-01-09T08:44:40.143Z,84.42
2023-01-09T08:47:08.549Z,84.18
2023-01-09T08:49:38.199Z,83.58
2023-01-09T08:52:07.636Z,83.56
2023-01-09T08:54:36.951Z,83.74
2023-01-09T08:57:05.220Z,83.27
2023-01-09T08:59:35.090Z,83.90
2023-01-09T09:02:03.250Z,84.76
2023-01-09T09:04:31.540Z,84.88
2023-01-09T09:06:59.649Z,84.43
2023-01-09T09:09:27.775Z,84.14
2023-01-09T09:11:55.878Z,84.28
2023-01-09T09:14:41.620Z,83.69
2023-01-09T09:17:11.160Z,83.66
2023-01-09T09:19:42.616Z,83.17
2023-01-09T09:22:10.875Z,82.98
2023-01-09T09:24:39.082Z,82.83
2023-01-09T09:27:07.247Z,82.50
2023-01-09T09:29:35.286Z,82.49
2023-01-09T09:32:03.377Z,82.63
2023-01-09T09:34:33.056Z,82.10
2023-01-09T09:37:01.437Z,81.98
2023-01-09T09:39:29.574Z,82.49
2023-01-09T09:42:52.665Z,82.52
2023-01-09T09:45:31.917Z,82.78
2023-01-09T09:48:13.394Z,82.89
2023-01-09T09:51:13.985Z,82.95
2023-01-09T09:53:48.852Z,83.02
2023-01-09T09:56:19.702Z,83.12
2023-01-09T09:58:50.688Z,83.28
2023-01-09T10:01:26.228Z,83.00
2023-01-09T10:04:00.080Z,83.25
2023-01-09T10:06:31.684Z,83.11
2023-01-09T10:09:07.379Z,83.02
2023-01-09T10:11:44.048Z,82.87
2023-01-09T10:14:23.213Z,83.02
2023-01-09T10:17:10.714Z,82.67
2023-01-09T10:19:53.186Z,82.83
2023-01-09T10:22:29.804Z,82.66
2023-01-09T10:25:14.096Z,82.33
2023-01-09T10:28:01.849Z,81.70
2023-01-09T10:30:38.872Z,81.89
2023-01-09T10:33:22.241Z,81.67
2023-01-09T10:36:18.345Z,81.13
2023-01-09T10:38:50.165Z,80.25
2023-01-09T10:41:24.905Z,80.29
2023-01-09T10:43:58.589Z,80.16
2023-01-09T10:46:30.848Z,79.46
2023-01-09T10:49:01.539Z,79.81
2023-01-09T10:51:36.371Z,79.87
2023-01-09T10:54:12.285Z,80.78
2023-01-09T10:56:47.169Z,80.95
2023-01-09T10:59:15.278Z,80.93
2023-01-09T11:01:43.513Z,80.44
2023-01-09T11:04:21.564Z,80.73
2023-01-09T11:06:54.051Z,80.60
2023-01-09T11:09:22.258Z,80.11
2023-01-09T11:11:52.805Z,80.02
2023-01-09T11:14:27.929Z,79.66
2023-01-09T11:16:57.549Z,79.37
2023-01-09T11:19:27.370Z,79.11
2023-01-09T11:22:08.978Z,78.60
2023-01-09T11:24:37.118Z,78.09
2023-01-09T11:27:25.051Z,77.65
2023-01-09T11:30:27.004Z,77.97
2023-01-09T11:32:56.439Z,77.44
2023-01-09T11:35:28.304Z,77.31
2023-01-09T11:38:05.595Z,77.45
2023-01-09T11:40:45.178Z,77.08
2023-01-09T11:43:19.546Z,77.19
2023-01-09T11:46:00.509Z,76.42
2023-01-09T11:48:36.187Z,77.29
2023-01-09T11:51:07.393Z,76.85
2023-01-09T11:53:49.834Z,76.82
2023-01-09T11:56:18.781Z,76.84
2023-01-09T11:58:48.225Z,76.79
2023-01-09T12:01:41.759Z,77.12
2023-01-09T12:04:30.050Z,76.96
2023-01-09T12:07:34.336Z,76.44
2023-01-09T12:10:15.540Z,76.14
2023-01-09T12:12:57.261Z,76.01
2023-01-09T12:15:34.472Z,76.06
2023-01-09T12:18:23.926Z,75.80
2023-01-09T12:21:12.047Z,75.58
2023-01-09T12:23:55.425Z,74.76
2023-01-09T12:26:26.367Z,75.69
2023-01-09T12:29:41.801Z,75.21
2023-01-09T12:32:29.515Z,75.49
2023-01-09T12:35:07.271Z,75.32
2023-01-09T12:37:57.093Z,75.12
2023-01-09T12:40:40.676Z,75.25
2023-01-09T12:43:20.437Z,75.05
2023-01-09T12:46:01.457Z,74.82
2023-01-09T12:48:46.841Z,74.86
2023-01-09T12:51:29.571Z,74.82
2023-01-09T12:54:03.520Z,74.57
2023-01-09T12:56:35.603Z,75.37
2023-01-09T12:59:22.680Z,75.17
2023-01-09T13:01:51.903Z,75.50
2023-01-09T13:04:26.847Z,75.65
2023-01-09T13:07:00.950Z,75.20
2023-01-09T13:09:43.445Z,75.31
2023-01-09T13:12:15.627Z,75.24
2023-01-09T13:14:53.697Z,74.62
2023-01-09T13:17:27.515Z,74.60
2023-01-09T13:19:57.051Z,74.89
2023-01-09T13:22:28.820Z,74.66
2023-01-09T13:25:29.728Z,74.62
2023-01-09T13:28:01.865Z,75.00
2023-01-09T13:30:49.847Z,74.89
2023-01-09T13:33:22.398Z,75.16
2023-01-09T13:35:57.326Z,75.35
2023-01-09T13:38:27.955Z,75.41
2023-01-09T13:41:21.975Z,75.57
2023-01-09T13:43:58.388Z,75.91
2023-01-09T13:46:36.817Z,75.99
2023-01-09T13:49:05.520Z,76.79
2023-01-09T13:52:00.143Z,77.83
2023-01-09T13:55:01.873Z,77.96
2023-01-09T13:57:32.416Z,77.68
2023-01-09T14:00:17.021Z,77.31
2023-01-09T14:02:56.840Z,77.64
2023-01-09T14:06:02.368Z,77.29
2023-01-09T14:08:34.168Z,77.91
2023-01-09T14:11:04.754Z,77.85
2023-01-09T14:13:39.654Z,78.14
2023-01-09T14:16:10.586Z,78.00
2023-01-09T14:18:42.762Z,77.66
2023-01-09T14:21:13.817Z,78.12
2023-01-09T14:23:54.964Z,78.76
2023-01-09T14:26:26.653Z,81.61
2023-01-09T14:29:33.194Z,82.38
2023-01-09T14:32:36.504Z,83.52
2023-01-09T14:35:12.943Z,82.72
2023-01-09T14:37:42.350Z,82.26
2023-01-09T14:40:22.849Z,81.86
2023-01-09T14:42:54.539Z,81.88
2023-01-09T14:45:24.908Z,81.60
2023-01-09T14:47:57.182Z,81.63
2023-01-09T14:50:33.346Z,81.27
2023-01-09T14:53:05.890Z,81.09
2023-01-09T14:55:44.168Z,81.04
2023-01-09T14:58:13.620Z,80.92
2023-01-09T15:00:49.847Z,79.66
2023-01-09T15:03:18.495Z,78.85
2023-01-09T15:05:48.254Z,79.39
2023-01-09T15:08:19.845Z,78.90
2023-01-09T15:10:52.188Z,78.24
2023-01-09T15:13:28.418Z,78.39
2023-01-09T15:15:56.896Z,78.54
2023-01-09T15:18:27.196Z,78.63
2023-01-09T15:20:59.372Z,78.83
2023-01-09T15:23:30.270Z,79.09
2023-01-09T15:26:14.147Z,79.73
2023-01-09T15:28:44.388Z,80.28
2023-01-09T15:31:16.701Z,79.84
2023-01-09T15:33:47.981Z,79.97
2023-01-09T15:36:20.787Z,80.71
2023-01-09T15:38:51.080Z,82.09
2023-01-09T15:41:42.945Z,83.31
2023-01-09T15:44:17.226Z,85.64
2023-01-09T15:46:46.585Z,86.22
2023-01-09T15:49:15.696Z,85.40
2023-01-09T15:51:46.408Z,87.10
2023-01-09T15:54:16.363Z,87.77
2023-01-09T15:56:46.943Z,90.04
2023-01-09T15:59:27.249Z,91.18
2023-01-09T16:02:15.958Z,91.81
2023-01-09T16:04:45.732Z,92.90
2023-01-09T16:07:17.470Z,94.02
2023-01-09T16:09:48.394Z,94.63
2023-01-09T16:12:23.243Z,93.11
2023-01-09T16:14:54.527Z,93.54
2023-01-09T16:17:26.751Z,92.19
2023-01-09T16:19:57.984Z,91.65
2023-01-09T16:22:28.389Z,92.95
2023-01-09T16:24:59.630Z,91.92
2023-01-09T16:27:32.212Z,91.86
2023-01-09T16:30:01.665Z,91.63
2023-01-09T16:32:32.200Z,91.13
2023-01-09T16:35:04.704Z,90.86
2023-01-09T16:37:34.602Z,91.59
2023-01-09T16:40:28.059Z,92.04
2023-01-09T16:43:09.015Z,91.86
2023-01-09T16:45:41.215Z,91.82
2023-01-09T16:48:14.837Z,92.55
2023-01-09T16:50:44.147Z,92.42
2023-01-09T16:53:16.865Z,92.96
2023-01-09T16:55:45.293Z,92.59
2023-01-09T16:58:18.476Z,93.19
2023-01-09T17:00:48.046Z,93.08
2023-01-09T17:03:17.143Z,93.19
2023-01-09T17:05:45.563Z,93.78
2023-01-09T17:08:22.340Z,93.71
2023-01-09T17:10:50.925Z,94.20
2023-01-09T17:13:20.643Z,93.63
2023-01-09T17:15:49.340Z,93.53
2023-01-09T17:18:18.255Z,92.53
2023-01-09T17:20:48.004Z,91.93
2023-01-09T17:23:16.059Z,91.81
2023-01-09T17:26:02.623Z,93.08
2023-01-09T17:28:36.057Z,92.08
2023-01-09T17:31:06.662Z,90.96
2023-01-09T17:33:35.077Z,93.37
2023-01-09T17:36:03.724Z,92.66
2023-01-09T17:38:31.817Z,92.41
2023-01-09T17:40:59.901Z,93.39
2023-01-09T17:43:27.951Z,92.02
2023-01-09T17:45:58.859Z,91.29
2023-01-09T17:48:27.072Z,91.80
2023-01-09T17:50:55.189Z,90.45
2023-01-09T17:53:24.898Z,89.06
2023-01-09T17:55:52.954Z,88.49
2023-01-09T17:58:27.023Z,87.52
2023-01-09T18:00:55.295Z,86.35
2023-01-09T18:03:30.995Z,86.39
2023-01-09T18:05:59.237Z,86.29
2023-01-09T18:08:27.368Z,87.08
2023-01-09T18:10:55.894Z,87.37
2023-01-09T18:13:24.019Z,86.41
2023-01-09T18:15:52.244Z,85.61
2023-01-09T18:18:22.448Z,86.13
2023-01-09T18:20:52.722Z,86.31
2023-01-09T18:23:21.217Z,85.33
2023-01-09T18:25:49.508Z,84.99
2023-01-09T18:28:18.594Z,84.28
2023-01-09T18:30:48.067Z,84.80
2023-01-09T18:33:17.516Z,84.92
2023-01-09T18:35:46.516Z,86.00
2023-01-09T18:38:16.548Z,86.45
2023-01-09T18:40:45.008Z,88.05
2023-01-09T18:43:14.365Z,88.53
2023-01-09T18:45:42.608Z,87.52
2023-01-09T18:48:12.746Z,87.41
2023-01-09T18:50:41.161Z,87.83
2023-01-09T18:53:09.291Z,87.41
2023-01-09T18:55:39.413Z,86.47
2023-01-09T18:58:07.766Z,86.21
2023-01-09T19:00:36.727Z,85.63
2023-01-09T19:03:04.892Z,86.33
2023-01-09T19:05:33.618Z,85.74
2023-01-09T19:08:01.824Z,86.15
2023-01-09T19:10:29.932Z,86.13
2023-01-09T19:12:59.480Z,86.50
2023-01-09T19:15:29.939Z,86.36
2023-01-09T19:17:58.792Z,86.67
2023-01-09T19:20:27.051Z,86.84
2023-01-09T19:22:57.213Z,88.58
2023-01-09T19:25:25.531Z,87.97
2023-01-09T19:27:56.138Z,88.44
2023-01-09T19:30:25.721Z,89.72
2023-01-09T19:32:53.859Z,91.59
2023-01-09T19:35:22.008Z,89.68
2023-01-09T19:37:50.086Z,89.67
2023-01-09T19:40:18.666Z,89.66
2023-01-09T19:42:47.677Z,89.56
2023-01-09T19:45:19.636Z,89.95
2023-01-09T19:47:49.490Z,90.89
2023-01-09T19:50:19.078Z,91.31
2023-01-09T19:52:47.376Z,91.28
2023-01-09T19:55:15.655Z,92.04
2023-01-09T19:57:45.222Z,93.50
2023-01-09T20:00:14.827Z,92.05
2023-01-09T20:02:43.888Z,91.74
2023-01-09T20:05:13.414Z,91.00
2023-01-09T20:07:41.936Z,91.04
2023-01-09T20:10:11.088Z,90.93
2023-01-09T20:12:39.163Z,90.99
2023-01-09T20:15:10.024Z,90.77
2023-01-09T20:17:38.215Z,91.55
2023-01-09T20:20:07.471Z,91.42
2023-01-09T20:22:37.124Z,91.21
2023-01-09T20:25:08.017Z,91.28
2023-01-09T20:27:36.110Z,89.94
2023-01-09T20:30:04.701Z,88.29
2023-01-09T20:32:32.822Z,88.25
2023-01-09T20:35:02.448Z,88.63
2023-01-09T20:37:31.653Z,90.00
2023-01-09T20:40:01.097Z,89.84
2023-01-09T20:42:29.199Z,89.56
2023-01-09T20:44:57.311Z,88.90
2023-01-09T20:47:26.045Z,89.00
2023-01-09T20:49:54.114Z,88.62
2023-01-09T20:52:23.603Z,89.05
2023-01-09T20:54:51.688Z,89.24
2023-01-09T20:57:21.344Z,89.96
2023-01-09T20:59:49.417Z,90.61
2023-01-09T21:02:17.516Z,91.05
2023-01-09T21:04:45.638Z,91.24
2023-01-09T21:07:13.690Z,91.24
2023-01-09T21:09:41.745Z,90.70
2023-01-09T21:12:23.865Z,89.77
2023-01-09T21:14:53.450Z,88.70
2023-01-09T21:17:21.596Z,87.43
2023-01-09T21:19:50.342Z,87.39
2023-01-09T21:22:18.555Z,86.44
2023-01-09T21:24:50.432Z,86.43
2023-01-09T21:27:18.731Z,85.88
2023-01-09T21:29:46.907Z,86.12
2023-01-09T21:32:16.375Z,85.81
2023-01-09T21:34:44.533Z,85.38
2023-01-09T21:37:12.716Z,85.17
2023-01-09T21:39:40.863Z,84.86
2023-01-09T21:42:27.429Z,85.01
2023-01-09T21:45:13.463Z,84.67
2023-01-09T21:47:43.026Z,86.27
2023-01-09T21:50:12.112Z,87.01
2023-01-09T21:52:40.292Z,87.02
2023-01-09T21:55:10.006Z,87.16
2023-01-09T21:57:38.137Z,87.35
2023-01-09T22:00:08.018Z,86.61
2023-01-09T22:02:41.143Z,86.97
2023-01-09T22:05:10.809Z,87.01
2023-01-09T22:07:38.955Z,86.78
2023-01-09T22:10:08.099Z,86.61
2023-01-09T22:12:36.390Z,86.56
2023-01-09T22:15:04.961Z,86.18
2023-01-09T22:17:33.213Z,85.91
2023-01-09T22:20:01.258Z,86.57
2023-01-09T22:22:30.767Z,86.43
2023-01-09T22:24:59.757Z,86.64
2023-01-09T22:27:27.864Z,87.41
2023-01-09T22:29:56.031Z,88.55
2023-01-09T22:32:24.315Z,88.49
2023-01-09T22:34:52.411Z,89.83
2023-01-09T22:37:20.695Z,90.34
2023-01-09T22:39:50.172Z,90.87
2023-01-09T22:42:18.536Z,91.68
2023-01-09T22:44:46.583Z,91.98
2023-01-09T22:47:14.698Z,93.10
2023-01-09T22:49:52.324Z,93.82
2023-01-09T22:52:21.387Z,94.18
2023-01-09T22:54:50.924Z,94.59
2023-01-09T22:57:19.066Z,94.43
2023-01-09T22:59:47.128Z,94.92
2023-01-09T23:02:15.284Z,95.52
2023-01-09T23:04:43.486Z,95.84
2023-01-09T23:07:11.658Z,95.93
2023-01-09T23:09:39.985Z,95.63
2023-01-09T23:12:09.739Z,95.54
2023-01-09T23:14:39.417Z,95.48
2023-01-09T23:17:09.781Z,95.13
2023-01-09T23:19:38.562Z,95.46
2023-01-09T23:22:06.661Z,96.46
2023-01-09T23:24:35.345Z,95.92
2023-01-09T23:27:04.442Z,95.47
2023-01-09T23:29:33.967Z,96.24
2023-01-09T23:32:07.872Z,96.16
2023-01-09T23:34:35.917Z,97.06
2023-01-09T23:37:08.986Z,97.43
2023-01-09T23:39:37.462Z,97.90
2023-01-09T23:42:23.045Z,98.36
2023-01-09T23:44:52.618Z,98.44
2023-01-09T23:47:20.793Z,97.88
2023-01-09T23:49:48.852Z,97.43
2023-01-09T23:52:16.939Z,96.79
2023-01-09T23:54:45.089Z,97.70
2023-01-09T23:57:13.208Z,97.60
2023-01-09T23:59:41.280Z,97.59
